createdAt,value
2023-11-28T00:00:32.974Z,99276.50
2023-11-28T00:02:59.707Z,99308.94
2023-11-28T00:05:26.684Z,99301.84
2023-11-28T00:07:53.336Z,99279.47
2023-11-28T00:10:19.934Z,99289.91
2023-11-28T00:12:46.463Z,99303.97
2023-11-28T00:15:13.094Z,99273.31
2023-11-28T00:17:39.915Z,99261.97
2023-11-28T00:20:07.424Z,99271.16
2023-11-28T00:22:34.166Z,99257.69
2023-11-28T00:25:00.999Z,99257.75
2023-11-28T00:27:27.629Z,99273.03
2023-11-28T00:29:54.196Z,99254.63
2023-11-28T00:32:20.748Z,99285.16
2023-11-28T00:34:49.669Z,99275.41
2023-11-28T00:37:16.489Z,99282.41
2023-11-28T00:39:43.318Z,99248.91
2023-11-28T00:42:10.154Z,99256.25
2023-11-28T00:44:36.687Z,99268.22
2023-11-28T00:47:03.376Z,99287.28
2023-11-28T00:49:30.016Z,99276.13
2023-11-28T00:51:56.574Z,99288.28
2023-11-28T00:54:23.077Z,99292.75
2023-11-28T00:56:51.242Z,99297.97
2023-11-28T00:59:17.803Z,99279.47
2023-11-28T01:01:45.029Z,99287.00
2023-11-28T01:04:11.744Z,99267.69
2023-11-28T01:06:38.322Z,99257.97
2023-11-28T01:09:06.064Z,99289.06
2023-11-28T01:11:32.482Z,99283.47
2023-11-28T01:13:59.016Z,99281.03
2023-11-28T01:16:25.965Z,99285.16
2023-11-28T01:18:52.626Z,99254.19
2023-11-28T01:21:19.034Z,99284.91
2023-11-28T01:23:45.645Z,99267.31
2023-11-28T01:26:12.126Z,99266.47
2023-11-28T01:28:38.681Z,99289.88
2023-11-28T01:31:06.566Z,99287.72
2023-11-28T01:33:33.569Z,99262.75
2023-11-28T01:36:00.186Z,99259.53
2023-11-28T01:38:26.780Z,99272.41
2023-11-28T01:40:53.221Z,99275.81
2023-11-28T01:43:29.876Z,99276.53
2023-11-28T01:45:58.106Z,99259.41
2023-11-28T01:48:24.928Z,99252.31
2023-11-28T01:50:52.071Z,99252.94
2023-11-28T01:53:19.173Z,99247.84
2023-11-28T01:55:46.069Z,99246.28
2023-11-28T01:58:13.276Z,99244.13
2023-11-28T02:00:40.011Z,99276.44
2023-11-28T02:03:10.275Z,99254.94
2023-11-28T02:05:36.970Z,99269.22
2023-11-28T02:08:05.104Z,99281.19
2023-11-28T02:10:35.078Z,99260.50
2023-11-28T02:13:01.626Z,99253.75
2023-11-28T02:15:44.162Z,99280.72
2023-11-28T02:18:11.618Z,99266.53
2023-11-28T02:20:41.899Z,99266.72
2023-11-28T02:23:09.608Z,99249.28
2023-11-28T02:25:41.511Z,99246.94
2023-11-28T02:28:08.037Z,99242.38
2023-11-28T02:46:50.333Z,99245.50
2023-11-28T02:49:16.960Z,99233.63
2023-11-28T02:51:43.463Z,99254.94
2023-11-28T02:54:09.910Z,99259.00
2023-11-28T02:56:36.481Z,99243.88
2023-11-28T02:59:03.000Z,99264.81
2023-11-28T03:01:29.689Z,99246.63
2023-11-28T03:03:56.978Z,99250.13
2023-11-28T03:06:23.515Z,99215.63
2023-11-28T03:08:49.951Z,99249.06
2023-11-28T03:11:16.448Z,99247.78
2023-11-28T03:13:42.935Z,99257.16
2023-11-28T03:16:10.054Z,99228.84
2023-11-28T03:18:36.576Z,99236.59
2023-11-28T03:21:03.023Z,99257.72
2023-11-28T03:23:29.532Z,99259.84
2023-11-28T03:25:57.271Z,99261.28
2023-11-28T03:28:23.860Z,99239.00
2023-11-28T03:30:50.464Z,99240.78
2023-11-28T03:33:17.113Z,99222.94
2023-11-28T03:35:44.049Z,99220.97
2023-11-28T03:38:10.892Z,99228.63
2023-11-28T03:40:37.558Z,99223.22
2023-11-28T03:43:04.211Z,99222.19
2023-11-28T03:45:30.730Z,99242.41
2023-11-28T03:47:57.182Z,99252.47
2023-11-28T03:50:23.731Z,99213.16
2023-11-28T03:52:50.376Z,99249.94
2023-11-28T03:55:16.903Z,99215.28
2023-11-28T03:57:43.299Z,99249.94
2023-11-28T04:00:11.520Z,99246.78
2023-11-28T04:02:38.290Z,99237.56
2023-11-28T04:05:07.733Z,99226.50
2023-11-28T04:07:34.331Z,99234.72
2023-11-28T04:10:00.892Z,99258.03
2023-11-28T04:12:27.792Z,99236.50
2023-11-28T04:14:54.294Z,99258.78
2023-11-28T04:17:21.093Z,99251.56
2023-11-28T04:19:47.800Z,99211.22
2023-11-28T04:22:14.871Z,99229.78
2023-11-28T04:24:41.596Z,99245.47
2023-11-28T04:27:08.116Z,99242.59
2023-11-28T04:29:34.636Z,99267.50
2023-11-28T04:32:01.390Z,99243.09
2023-11-28T04:34:28.143Z,99255.47
2023-11-28T04:36:55.088Z,99255.81
2023-11-28T04:39:21.753Z,99258.28
2023-11-28T04:41:54.130Z,99262.69
2023-11-28T04:44:20.705Z,99218.72
2023-11-28T04:46:47.284Z,99256.03
2023-11-28T04:49:15.221Z,99259.56
2023-11-28T04:51:41.793Z,99264.50
2023-11-28T04:54:08.616Z,99266.53
2023-11-28T04:56:35.401Z,99239.38
2023-11-28T04:59:02.039Z,99253.88
2023-11-28T05:01:28.588Z,99239.06
2023-11-28T05:03:55.193Z,99268.63
2023-11-28T05:06:22.131Z,99249.28
2023-11-28T05:08:48.980Z,99254.38
2023-11-28T05:11:15.574Z,99225.69
2023-11-28T05:13:48.272Z,99248.78
2023-11-28T05:16:15.027Z,99237.56
2023-11-28T05:18:41.780Z,99249.63
2023-11-28T05:21:11.449Z,99240.09
2023-11-28T05:23:39.690Z,99264.03
2023-11-28T05:26:13.240Z,99286.09
2023-11-28T05:28:39.935Z,99269.03
2023-11-28T05:31:06.671Z,99287.00
2023-11-28T05:33:33.193Z,99260.03
2023-11-28T05:35:59.647Z,99286.31
2023-11-28T05:38:26.121Z,99293.56
2023-11-28T05:40:52.600Z,99295.06
2023-11-28T05:43:19.401Z,99277.47
2023-11-28T05:45:45.891Z,99287.81
2023-11-28T05:48:15.425Z,99307.41
2023-11-28T05:50:41.964Z,99287.31
2023-11-28T05:53:08.424Z,99306.03
2023-11-28T05:55:34.974Z,99305.06
2023-11-28T05:58:01.553Z,99311.38
2023-11-28T06:00:28.618Z,99268.88
2023-11-28T06:02:55.332Z,99310.88
2023-11-28T06:05:22.063Z,99290.19
2023-11-28T06:07:49.014Z,99295.94
2023-11-28T06:10:16.553Z,99319.63
2023-11-28T06:12:43.128Z,99309.72
2023-11-28T06:15:09.656Z,99334.19
2023-11-28T06:21:25.084Z,99300.53
2023-11-28T06:23:51.739Z,99337.03
2023-11-28T06:26:18.264Z,99332.13
2023-11-28T06:28:44.734Z,99345.56
2023-11-28T06:31:11.373Z,99347.03
2023-11-28T06:33:37.972Z,99306.09
2023-11-28T06:36:05.543Z,99325.78
2023-11-28T06:38:35.908Z,99323.81
2023-11-28T06:47:02.029Z,99340.47
2023-11-28T06:47:55.687Z,99338.25
2023-11-28T07:47:09.256Z,99420.50
2023-11-28T07:49:36.124Z,99411.28
2023-11-28T08:13:54.854Z,99455.91
2023-11-28T08:16:24.704Z,99457.53
2023-11-28T08:18:51.490Z,99460.59
2023-11-28T08:21:19.573Z,99428.38
2023-11-28T08:23:46.728Z,99452.81
2023-11-28T08:26:13.349Z,99464.63
2023-11-28T08:28:40.141Z,99481.56
2023-11-28T08:31:10.471Z,99450.47
2023-11-28T08:33:37.169Z,99451.06
2023-11-28T08:36:04.263Z,99461.22
2023-11-28T08:38:31.122Z,99463.78
2023-11-28T08:41:03.441Z,99434.38
2023-11-28T08:48:42.773Z,99488.81
2023-11-28T08:55:13.144Z,99465.91
2023-11-28T08:58:00.429Z,99467.47
2023-11-28T09:00:46.026Z,99452.28
2023-11-28T09:03:13.198Z,99456.38
2023-11-28T09:05:48.829Z,99454.53
2023-11-28T09:08:27.220Z,99465.94
2023-11-28T09:18:22.022Z,99492.69
2023-11-28T09:24:23.265Z,99497.94
2023-11-28T09:26:59.929Z,99510.16
2023-11-28T09:29:29.335Z,99501.00
2023-11-28T09:35:02.584Z,99485.47
2023-11-28T09:38:45.956Z,99474.72
2023-11-28T09:41:12.780Z,99467.09
2023-11-28T09:46:30.614Z,99472.00
2023-11-28T09:46:54.968Z,99479.88
2023-11-28T09:49:48.179Z,99486.25
2023-11-28T09:52:35.509Z,99520.06
2023-11-28T09:55:02.742Z,99516.53
2023-11-28T09:57:35.581Z,99480.88
2023-11-28T10:00:12.765Z,99515.94
2023-11-28T10:02:43.215Z,99521.13
2023-11-28T10:05:10.041Z,99509.63
2023-11-28T10:07:37.110Z,99487.66
2023-11-28T10:10:38.407Z,99466.44
2023-11-28T10:13:10.733Z,99475.94
2023-11-28T10:15:41.328Z,99467.97
2023-11-28T10:22:09.546Z,99479.88
2023-11-28T10:24:36.568Z,99500.09
2023-11-28T10:30:40.238Z,99493.28
2023-11-28T10:33:17.211Z,99500.38
2023-11-28T10:35:46.208Z,99504.84
2023-11-28T10:38:24.634Z,99496.44
2023-11-28T10:40:59.712Z,99500.25
2023-11-28T10:43:42.674Z,99496.41
2023-11-28T10:46:22.173Z,99505.81
2023-11-28T10:52:07.285Z,99522.56
2023-11-28T10:54:40.003Z,99505.69
2023-11-28T11:03:59.927Z,99523.59
2023-11-28T11:06:27.669Z,99520.59
2023-11-28T11:09:01.764Z,99512.06
2023-11-28T11:11:36.053Z,99533.91
2023-11-28T11:14:38.367Z,99502.56
2023-11-28T11:17:27.316Z,99555.53
2023-11-28T11:23:39.379Z,99545.88
2023-11-28T11:26:06.911Z,99519.94
2023-11-28T11:29:17.371Z,99509.75
2023-11-28T11:32:33.313Z,99525.31
2023-11-28T11:35:17.398Z,99521.88
2023-11-28T11:38:17.538Z,99549.09
2023-11-28T11:40:48.975Z,99551.44
2023-11-28T11:43:31.416Z,99525.22
2023-11-28T11:46:57.983Z,99574.19
2023-11-28T11:49:25.204Z,99558.53
2023-11-28T11:51:58.025Z,99560.47
2023-11-28T11:54:29.498Z,99539.00
2023-11-28T11:56:56.567Z,99549.38
2023-11-28T11:59:30.731Z,99558.66
2023-11-28T12:02:16.183Z,99564.88
2023-11-28T12:05:07.514Z,99584.16
2023-11-28T12:07:37.738Z,99561.88
2023-11-28T12:10:39.645Z,99566.91
2023-11-28T12:13:12.629Z,99552.38
2023-11-28T12:15:42.799Z,99571.53
2023-11-28T12:18:29.390Z,99543.47
2023-11-28T12:20:59.859Z,99593.44
2023-11-28T12:26:45.868Z,99576.56
2023-11-28T12:29:47.088Z,99599.66
2023-11-28T12:32:14.370Z,99582.84
2023-11-28T12:34:57.180Z,99584.28
2023-11-28T12:37:23.830Z,99598.59
2023-11-28T12:39:54.947Z,99579.34
2023-11-28T12:42:21.666Z,99586.44
2023-11-28T12:44:49.807Z,99611.03
2023-11-28T12:47:16.876Z,99595.56
2023-11-28T12:49:43.933Z,99583.53
2023-11-28T12:52:11.709Z,99585.69
2023-11-28T12:54:52.799Z,99615.13
2023-11-28T12:58:15.353Z,99632.63
2023-11-28T13:00:42.452Z,99613.56
2023-11-28T13:03:09.155Z,99602.72
2023-11-28T13:05:42.303Z,99607.63
2023-11-28T13:08:17.706Z,99608.13
2023-11-28T13:10:45.252Z,99625.84
2023-11-28T13:13:38.327Z,99641.56
2023-11-28T13:16:05.660Z,99622.13
2023-11-28T13:18:33.041Z,99645.28
2023-11-28T13:21:52.314Z,99656.81
2023-11-28T13:24:28.422Z,99603.38
2023-11-28T13:26:55.402Z,99612.19
2023-11-28T13:29:30.720Z,99634.09
2023-11-28T13:31:59.978Z,99616.31
2023-11-28T13:34:26.719Z,99650.00
2023-11-28T13:36:53.504Z,99617.69
2023-11-28T13:39:24.535Z,99636.91
2023-11-28T13:41:57.504Z,99639.69
2023-11-28T13:47:20.453Z,99644.50
2023-11-28T13:47:20.821Z,99660.88
2023-11-28T13:49:47.460Z,99643.38
2023-11-28T13:52:14.350Z,99649.69
2023-11-28T13:54:41.029Z,99671.47
2023-11-28T13:57:09.005Z,99671.84
2023-11-28T14:00:48.674Z,99656.38
2023-11-28T14:03:46.621Z,99670.63
2023-11-28T14:09:50.034Z,99668.94
2023-11-28T14:12:36.811Z,99690.78
2023-11-28T14:15:04.274Z,99685.84
2023-11-28T14:17:31.227Z,99677.31
2023-11-28T14:20:07.727Z,99693.28
2023-11-28T14:26:14.935Z,99702.22
2023-11-28T14:29:08.163Z,99724.38
2023-11-28T14:32:07.393Z,99697.91
2023-11-28T14:34:53.901Z,99715.31
2023-11-28T14:37:21.014Z,99700.41
2023-11-28T14:40:00.534Z,99714.38
2023-11-28T14:42:28.054Z,99715.78
2023-11-28T14:45:04.137Z,99686.63
2023-11-28T14:54:55.521Z,99735.97
2023-11-28T14:57:22.790Z,99747.19
2023-11-28T14:59:52.440Z,99726.09
2023-11-28T15:02:30.926Z,99702.66
2023-11-28T15:05:41.597Z,99709.66
2023-11-28T15:08:10.943Z,99723.22
2023-11-28T15:10:40.034Z,99760.72
2023-11-28T15:13:40.952Z,99741.84
2023-11-28T15:16:08.879Z,99750.09
2023-11-28T15:18:35.635Z,99752.13
2023-11-28T15:21:10.818Z,99746.03
2023-11-28T15:23:37.730Z,99756.63
2023-11-28T15:26:05.116Z,99764.16
2023-11-28T15:28:31.839Z,99788.47
2023-11-28T15:31:18.858Z,99797.75
2023-11-28T15:33:45.647Z,99768.44
2023-11-28T15:36:13.946Z,99784.97
2023-11-28T15:38:41.834Z,99762.59
2023-11-28T15:41:08.806Z,99775.66
2023-11-28T15:43:35.562Z,99761.41
2023-11-28T15:46:02.144Z,99782.81
2023-11-28T15:48:28.605Z,99808.81
2023-11-28T15:50:55.445Z,99788.28
2023-11-28T15:53:22.175Z,99783.66
2023-11-28T15:55:48.854Z,99799.88
2023-11-28T15:58:21.059Z,99794.84
2023-11-28T16:00:49.782Z,99795.03
2023-11-28T16:03:18.856Z,99801.69
2023-11-28T16:06:01.377Z,99836.19
2023-11-28T16:08:36.494Z,99811.69
2023-11-28T16:11:28.151Z,99834.75
2023-11-28T16:13:55.957Z,99808.38
2023-11-28T16:19:46.654Z,99787.97
2023-11-28T16:22:38.922Z,99815.66
2023-11-28T16:25:10.553Z,99837.13
2023-11-28T16:27:40.202Z,99796.22
2023-11-28T16:30:17.435Z,99813.25
2023-11-28T16:32:50.184Z,99814.47
2023-11-28T16:36:08.802Z,99850.25
2023-11-28T16:38:42.993Z,99795.97
2023-11-28T16:41:13.194Z,99827.00
2023-11-28T16:43:41.598Z,99827.66
2023-11-28T16:46:09.866Z,99857.16
2023-11-28T16:48:41.068Z,99822.78
2023-11-28T16:51:15.976Z,99845.22
2023-11-28T16:54:09.507Z,99844.78
2023-11-28T16:56:38.561Z,99853.56
2023-11-28T17:06:44.592Z,99827.94
2023-11-28T17:09:11.920Z,99830.47
2023-11-28T17:11:40.625Z,99871.09
2023-11-28T17:14:07.552Z,99839.69
2023-11-28T17:16:41.968Z,99842.53
2023-11-28T17:19:18.808Z,99852.56
2023-11-28T17:21:48.456Z,99864.84
2023-11-28T17:24:20.633Z,99873.84
2023-11-28T17:26:55.144Z,99861.97
2023-11-28T17:29:41.184Z,99857.56
2023-11-28T17:32:20.366Z,99862.75
2023-11-28T17:34:51.587Z,99894.13
2023-11-28T17:37:38.076Z,99871.06
2023-11-28T17:40:11.569Z,99871.28
2023-11-28T17:43:10.739Z,99884.97
2023-11-28T17:45:54.170Z,99884.31
2023-11-28T17:48:24.412Z,99921.25
2023-11-28T17:51:11.708Z,99881.78
2023-11-28T17:53:57.975Z,99908.53
2023-11-28T17:56:40.872Z,99873.00
2023-11-28T17:59:31.841Z,99887.38
2023-11-28T18:02:04.353Z,99909.81
2023-11-28T18:04:38.718Z,99906.44
2023-11-28T18:07:36.929Z,99937.78
2023-11-28T18:10:20.027Z,99944.25
2023-11-28T18:13:20.760Z,99897.63
2023-11-28T18:16:00.399Z,99950.78
2023-11-28T18:18:33.173Z,99942.47
2023-11-28T18:21:15.037Z,99903.59
2023-11-28T18:23:49.028Z,99903.59
2023-11-28T18:26:16.047Z,99918.59
2023-11-28T18:28:45.343Z,99954.28
2023-11-28T18:31:14.572Z,99925.63
2023-11-28T18:33:41.743Z,99934.16
2023-11-28T18:36:09.952Z,99920.09
2023-11-28T18:38:42.776Z,99939.75
2023-11-28T18:41:15.502Z,99953.53
2023-11-28T18:43:44.946Z,99958.69
2023-11-28T18:46:25.530Z,99950.34
2023-11-28T18:48:55.280Z,99954.69
2023-11-28T18:51:22.405Z,99954.63
2023-11-28T18:53:52.412Z,99936.31
2023-11-28T18:56:40.602Z,99950.16
2023-11-28T18:59:30.668Z,99970.50
2023-11-28T19:02:03.053Z,99970.31
2023-11-28T19:04:30.902Z,99971.84
2023-11-28T19:07:03.210Z,99970.91
2023-11-28T19:09:34.858Z,99968.13
2023-11-28T19:12:12.932Z,99951.63
2023-11-28T19:14:39.736Z,99954.06
2023-11-28T19:17:15.890Z,99950.38
2023-11-28T23:23:29.594Z,99950.91
2023-11-28T23:49:34.096Z,99951.88
2023-11-28T23:52:59.019Z,99961.84
